createdAt,value
2016-11-24T00:00:11.550Z,925.61
2016-11-24T00:00:26.032Z,925.64
2016-11-24T00:00:40.420Z,925.66
2016-11-24T00:00:54.787Z,925.62
2016-11-24T00:01:09.204Z,925.66
2016-11-24T00:01:23.642Z,925.68
2016-11-24T00:01:38.990Z,925.67
2016-11-24T00:01:53.535Z,925.67
2016-11-24T00:02:07.986Z,925.7
2016-11-24T00:02:22.585Z,925.66
2016-11-24T00:02:37.362Z,925.72
2016-11-24T00:02:51.772Z,925.7
2016-11-24T00:03:06.243Z,925.72
2016-11-24T00:03:20.751Z,925.68
2016-11-24T00:03:35.330Z,925.7
2016-11-24T00:03:50.051Z,925.7
2016-11-24T00:04:04.658Z,925.71
2016-11-24T00:04:19.127Z,925.67
2016-11-24T00:04:33.751Z,925.69
2016-11-24T00:04:48.371Z,925.72
2016-11-24T00:05:02.937Z,925.7
2016-11-24T00:05:17.932Z,925.73
2016-11-24T00:05:33.010Z,925.73
2016-11-24T00:05:47.835Z,925.72
2016-11-24T00:06:02.425Z,925.7
2016-11-24T00:06:20.191Z,925.77
2016-11-24T00:06:38.631Z,925.73
2016-11-24T00:06:53.211Z,925.71
2016-11-24T00:07:07.818Z,925.76
2016-11-24T00:07:22.933Z,925.8
2016-11-24T00:07:37.434Z,925.76
2016-11-24T00:07:52.115Z,925.79
2016-11-24T00:08:06.599Z,925.79
2016-11-24T00:08:21.127Z,925.76
2016-11-24T00:08:35.577Z,925.78
2016-11-24T00:08:50.266Z,925.79
2016-11-24T00:09:05.810Z,925.82
2016-11-24T00:09:20.245Z,925.77
2016-11-24T00:09:34.827Z,925.8
2016-11-24T00:09:49.447Z,925.81
2016-11-24T00:10:03.902Z,925.8
2016-11-24T00:10:18.491Z,925.8
2016-11-24T00:10:33.328Z,925.77
2016-11-24T00:10:48.000Z,925.8
2016-11-24T00:11:02.625Z,925.83
2016-11-24T00:11:17.428Z,925.78
2016-11-24T00:11:32.063Z,925.8
2016-11-24T00:11:46.939Z,925.84
2016-11-24T00:12:02.044Z,925.78
2016-11-24T00:12:16.946Z,925.83
2016-11-24T00:12:31.536Z,925.84
2016-11-24T00:12:46.323Z,925.78
2016-11-24T00:13:02.553Z,925.83
2016-11-24T00:13:18.097Z,925.83
2016-11-24T00:13:32.768Z,925.83
2016-11-24T00:13:49.202Z,925.82
2016-11-24T00:14:06.285Z,925.8
2016-11-24T00:14:21.237Z,925.83
2016-11-24T00:14:35.726Z,925.89
2016-11-24T00:14:50.136Z,925.83
2016-11-24T00:15:04.915Z,925.84
2016-11-24T00:15:19.435Z,925.85
2016-11-24T00:15:34.240Z,925.86
2016-11-24T00:16:12.327Z,925.88
2016-11-24T00:16:27.183Z,925.83
2016-11-24T00:16:41.706Z,925.86
2016-11-24T00:16:56.180Z,925.85
2016-11-24T00:17:11.356Z,925.9
2016-11-24T00:18:11.412Z,925.89
2016-11-24T00:19:11.226Z,925.92
2016-11-24T00:19:25.622Z,925.96
2016-11-24T00:19:40.238Z,925.92
2016-11-24T00:19:54.787Z,925.96
2016-11-24T00:20:09.378Z,925.94
2016-11-24T00:20:54.881Z,925.99
2016-11-24T00:21:09.421Z,925.98
2016-11-24T00:21:23.930Z,925.97
2016-11-24T00:21:38.411Z,926.01
2016-11-24T00:21:53.006Z,926.02
2016-11-24T00:22:07.455Z,926.01
2016-11-24T00:22:52.973Z,926.05
2016-11-24T00:23:07.427Z,926.08
2016-11-24T00:23:21.931Z,926.05
2016-11-24T00:23:36.350Z,926.1
2016-11-24T00:23:50.999Z,926.13
2016-11-24T00:24:05.436Z,926.11
2016-11-24T00:24:19.953Z,926.09
2016-11-24T00:24:34.363Z,926.1
2016-11-24T00:25:19.912Z,926.14
2016-11-24T00:25:34.631Z,926.16
2016-11-24T00:25:49.227Z,926.1
2016-11-24T00:26:03.614Z,926.12
2016-11-24T00:26:49.054Z,926.13
2016-11-24T00:27:03.495Z,926.14
2016-11-24T00:27:18.088Z,926.15
2016-11-24T00:27:32.563Z,926.16
2016-11-24T00:27:46.921Z,926.16
2016-11-24T00:28:01.411Z,926.18
2016-11-24T00:28:15.950Z,926.17
2016-11-24T00:28:30.306Z,926.25
2016-11-24T00:28:44.818Z,926.2
2016-11-24T00:28:59.303Z,926.19
2016-11-24T00:29:13.697Z,926.22
2016-11-24T00:29:28.090Z,926.21
2016-11-24T00:29:42.654Z,926.22
2016-11-24T00:29:57.179Z,926.26
2016-11-24T00:30:11.607Z,926.25
2016-11-24T00:30:26.352Z,926.22
2016-11-24T00:31:26.322Z,926.22
2016-11-24T00:31:40.732Z,926.25
2016-11-24T00:31:55.225Z,926.25
2016-11-24T00:32:09.775Z,926.24
2016-11-24T00:32:24.264Z,926.27
2016-11-24T00:32:38.715Z,926.26
2016-11-24T00:32:53.121Z,926.25
2016-11-24T00:33:07.610Z,926.28
2016-11-24T00:33:22.075Z,926.28
2016-11-24T00:33:36.517Z,926.25
2016-11-24T00:33:50.923Z,926.25
2016-11-24T00:34:05.388Z,926.29
2016-11-24T00:34:19.935Z,926.28
2016-11-24T00:34:34.905Z,926.31
2016-11-24T00:34:49.731Z,926.34
2016-11-24T00:35:04.372Z,926.34
2016-11-24T00:35:18.827Z,926.32
2016-11-24T00:35:33.303Z,926.34
2016-11-24T00:35:47.658Z,926.37
2016-11-24T00:36:02.118Z,926.36
2016-11-24T00:36:16.546Z,926.27
2016-11-24T00:36:30.899Z,926.34
2016-11-24T00:37:04.659Z,926.33
2016-11-24T00:37:19.152Z,926.38
2016-11-24T00:37:33.636Z,926.37
2016-11-24T00:37:48.041Z,926.41
2016-11-24T00:38:05.523Z,926.39
2016-11-24T00:38:19.953Z,926.34
2016-11-24T00:38:34.448Z,926.38
2016-11-24T00:38:48.865Z,926.37
2016-11-24T00:39:03.269Z,926.39
2016-11-24T00:39:17.688Z,926.38
2016-11-24T00:39:32.197Z,926.42
2016-11-24T00:39:46.603Z,926.39
2016-11-24T00:40:01.020Z,926.35
2016-11-24T00:40:15.401Z,926.38
2016-11-24T00:40:29.857Z,926.4
2016-11-24T00:40:44.251Z,926.37
2016-11-24T00:40:58.607Z,926.39
2016-11-24T00:41:13.038Z,926.44
2016-11-24T00:41:27.519Z,926.4
2016-11-24T00:42:12.945Z,926.37
2016-11-24T00:42:27.382Z,926.41
2016-11-24T00:42:41.693Z,926.42
2016-11-24T00:42:56.152Z,926.38
2016-11-24T00:43:10.578Z,926.37
2016-11-24T00:43:25.060Z,926.41
2016-11-24T00:43:39.433Z,926.45
2016-11-24T00:43:53.869Z,926.44
2016-11-24T00:44:08.215Z,926.41
2016-11-24T00:44:22.539Z,926.43
2016-11-24T00:44:37.027Z,926.43
2016-11-24T00:44:51.476Z,926.46
2016-11-24T00:45:05.859Z,926.45
2016-11-24T00:45:20.286Z,926.46
2016-11-24T00:45:34.833Z,926.47
2016-11-24T00:45:49.284Z,926.45
2016-11-24T00:46:03.708Z,926.45
2016-11-24T00:46:18.083Z,926.47
2016-11-24T00:46:32.444Z,926.45
2016-11-24T00:46:46.810Z,926.5
2016-11-24T00:47:01.231Z,926.46
2016-11-24T00:47:15.700Z,926.45
2016-11-24T00:47:30.111Z,926.45
2016-11-24T00:47:44.580Z,926.49
2016-11-24T00:48:24.689Z,926.47
2016-11-24T00:48:39.035Z,926.47
2016-11-24T00:48:53.394Z,926.46
2016-11-24T00:49:07.804Z,926.48
2016-11-24T00:49:22.220Z,926.48
2016-11-24T00:49:36.733Z,926.52
2016-11-24T00:49:51.105Z,926.53
2016-11-24T00:50:05.557Z,926.5
2016-11-24T00:50:19.995Z,926.51
2016-11-24T00:50:34.464Z,926.55
2016-11-24T00:51:34.307Z,926.58
2016-11-24T00:52:19.682Z,926.6
2016-11-24T00:52:34.039Z,926.66
2016-11-24T00:52:48.467Z,926.69
2016-11-24T00:53:02.904Z,926.65
2016-11-24T00:53:17.431Z,926.65
2016-11-24T00:53:31.852Z,926.69
2016-11-24T00:53:46.439Z,926.69
2016-11-24T00:54:00.800Z,926.7
2016-11-24T00:54:46.165Z,926.69
2016-11-24T00:55:00.519Z,926.69
2016-11-24T00:55:14.914Z,926.7
2016-11-24T00:55:29.275Z,926.66
2016-11-24T00:55:43.605Z,926.69
2016-11-24T00:55:58.224Z,926.7
2016-11-24T00:56:12.641Z,926.7
2016-11-24T00:56:27.069Z,926.74
2016-11-24T00:56:47.727Z,926.72
2016-11-24T00:57:02.941Z,926.7
2016-11-24T00:57:17.314Z,926.69
2016-11-24T00:57:31.766Z,926.71
2016-11-24T00:57:46.169Z,926.72
2016-11-24T00:58:00.619Z,926.72
2016-11-24T00:58:15.120Z,926.72
2016-11-24T00:58:29.590Z,926.7
2016-11-24T00:58:44.019Z,926.68
2016-11-24T00:58:58.406Z,926.69
2016-11-24T00:59:12.854Z,926.72
2016-11-24T00:59:27.309Z,926.71
2016-11-24T00:59:41.750Z,926.71
2016-11-24T00:59:56.167Z,926.73
2016-11-24T01:00:10.594Z,926.72
2016-11-24T01:00:24.961Z,926.74
2016-11-24T01:00:39.653Z,926.71
2016-11-24T01:00:54.001Z,926.73
2016-11-24T01:01:08.376Z,926.78
2016-11-24T01:01:22.730Z,926.74
2016-11-24T01:02:08.008Z,926.75
2016-11-24T01:02:22.426Z,926.73
2016-11-24T01:02:36.865Z,926.71
2016-11-24T01:02:51.276Z,926.72
2016-11-24T01:03:05.708Z,926.75
2016-11-24T01:03:20.125Z,926.74
2016-11-24T01:03:34.482Z,926.78
2016-11-24T01:03:48.901Z,926.73
2016-11-24T01:04:03.332Z,926.72
2016-11-24T01:04:17.723Z,926.71
2016-11-24T01:04:32.193Z,926.74
2016-11-24T01:04:46.654Z,926.74
2016-11-24T01:05:01.079Z,926.74
2016-11-24T01:05:15.466Z,926.77
2016-11-24T01:05:29.875Z,926.71
2016-11-24T01:05:44.281Z,926.77
2016-11-24T01:05:58.660Z,926.75
2016-11-24T01:06:13.049Z,926.74
2016-11-24T01:06:27.504Z,926.77
2016-11-24T01:06:41.908Z,926.74
2016-11-24T01:06:56.339Z,926.76
2016-11-24T01:07:10.716Z,926.77
2016-11-24T01:07:25.116Z,926.76
2016-11-24T01:07:39.470Z,926.79
2016-11-24T01:07:53.795Z,926.77
2016-11-24T01:08:08.203Z,926.79
2016-11-24T01:08:22.659Z,926.78
2016-11-24T01:08:37.199Z,926.8
2016-11-24T01:08:51.618Z,926.82
2016-11-24T01:09:06.043Z,926.75
2016-11-24T01:09:20.397Z,926.75
2016-11-24T01:09:34.677Z,926.76
2016-11-24T01:09:49.106Z,926.77
2016-11-24T01:10:03.566Z,926.81
2016-11-24T01:10:18.041Z,926.81
2016-11-24T01:10:32.429Z,926.77
2016-11-24T01:10:46.861Z,926.8
2016-11-24T01:11:01.219Z,926.77
2016-11-24T01:11:15.555Z,926.77
2016-11-24T01:11:30.005Z,926.78
2016-11-24T01:11:44.465Z,926.76
2016-11-24T01:11:58.867Z,926.77
2016-11-24T01:12:13.274Z,926.77
2016-11-24T01:12:27.594Z,926.75
2016-11-24T01:12:41.906Z,926.78
2016-11-24T01:12:56.286Z,926.79
2016-11-24T01:13:41.589Z,926.83
2016-11-24T01:13:56.096Z,926.82
2016-11-24T01:14:10.495Z,926.84
2016-11-24T01:14:55.809Z,926.82
2016-11-24T01:15:10.317Z,926.79
2016-11-24T01:15:24.658Z,926.82
2016-11-24T01:15:39.071Z,926.84
2016-11-24T01:15:53.872Z,926.81
2016-11-24T01:16:39.296Z,926.76
2016-11-24T01:16:53.742Z,926.76
2016-11-24T01:17:08.240Z,926.76
2016-11-24T01:17:22.684Z,926.73
2016-11-24T01:17:37.131Z,926.73
2016-11-24T01:17:51.536Z,926.7
2016-11-24T01:18:05.944Z,926.7
2016-11-24T01:18:20.355Z,926.7
2016-11-24T01:18:34.698Z,926.7
2016-11-24T01:18:49.118Z,926.67
2016-11-24T01:19:03.552Z,926.66
2016-11-24T01:19:18.024Z,926.66
2016-11-24T01:19:32.374Z,926.67
2016-11-24T01:19:46.725Z,926.64
2016-11-24T01:20:01.042Z,926.68
2016-11-24T01:20:15.456Z,926.66
2016-11-24T01:20:29.825Z,926.65
2016-11-24T01:20:44.171Z,926.63
2016-11-24T01:21:29.535Z,926.63
2016-11-24T01:21:43.924Z,926.65
2016-11-24T01:21:58.315Z,926.64
2016-11-24T01:22:12.810Z,926.64
2016-11-24T01:22:27.225Z,926.65
2016-11-24T01:22:41.680Z,926.59
2016-11-24T01:22:56.078Z,926.65
2016-11-24T01:23:10.453Z,926.61
2016-11-24T01:23:24.831Z,926.62
2016-11-24T01:23:39.228Z,926.6
2016-11-24T01:23:53.657Z,926.62
2016-11-24T01:24:08.055Z,926.62
2016-11-24T01:24:22.445Z,926.61
2016-11-24T01:24:36.860Z,926.59
2016-11-24T01:24:51.225Z,926.61
2016-11-24T01:25:05.561Z,926.61
2016-11-24T01:25:19.958Z,926.58
2016-11-24T01:25:34.401Z,926.63
2016-11-24T01:25:48.844Z,926.61
2016-11-24T01:26:03.220Z,926.6
2016-11-24T01:26:17.624Z,926.58
2016-11-24T01:26:32.055Z,926.58
2016-11-24T01:26:46.446Z,926.6
2016-11-24T01:27:00.883Z,926.61
2016-11-24T01:27:15.273Z,926.62
2016-11-24T01:27:29.671Z,926.6
2016-11-24T01:27:44.036Z,926.59
2016-11-24T01:28:29.316Z,926.59
2016-11-24T01:28:43.794Z,926.57
2016-11-24T01:28:58.179Z,926.58
2016-11-24T01:29:12.530Z,926.55
2016-11-24T01:29:26.964Z,926.54
2016-11-24T01:29:41.378Z,926.58
2016-11-24T01:29:55.715Z,926.58
2016-11-24T01:30:10.086Z,926.54
2016-11-24T01:30:24.494Z,926.54
2016-11-24T01:30:38.913Z,926.58
2016-11-24T01:30:53.596Z,926.54
2016-11-24T01:31:07.965Z,926.54
2016-11-24T01:31:22.388Z,926.54
2016-11-24T01:31:36.746Z,926.52
2016-11-24T01:31:51.049Z,926.57
2016-11-24T01:32:05.414Z,926.57
2016-11-24T01:32:19.872Z,926.58
2016-11-24T01:32:34.286Z,926.59
2016-11-24T01:32:48.600Z,926.59
2016-11-24T01:33:02.986Z,926.58
2016-11-24T01:33:17.374Z,926.62
2016-11-24T01:33:32.083Z,926.62
2016-11-24T01:33:46.466Z,926.6
2016-11-24T01:34:00.821Z,926.62
2016-11-24T01:34:15.235Z,926.61
2016-11-24T01:34:29.568Z,926.63
2016-11-24T01:34:44.028Z,926.65
2016-11-24T01:34:58.400Z,926.6
2016-11-24T01:35:12.787Z,926.62
2016-11-24T01:35:27.199Z,926.63
2016-11-24T01:35:41.588Z,926.62
2016-11-24T01:35:56.043Z,926.62
2016-11-24T01:36:10.498Z,926.67
2016-11-24T01:36:24.888Z,926.66
2016-11-24T01:36:39.289Z,926.66
2016-11-24T01:36:53.741Z,926.67
2016-11-24T01:37:08.071Z,926.67
2016-11-24T01:37:22.415Z,926.71
2016-11-24T01:37:36.838Z,926.73
2016-11-24T01:38:22.169Z,926.71
2016-11-24T01:38:36.531Z,926.74
2016-11-24T01:38:50.954Z,926.7
2016-11-24T01:39:05.340Z,926.73
2016-11-24T01:39:19.741Z,926.72
2016-11-24T01:39:34.098Z,926.74
2016-11-24T01:39:48.502Z,926.72
2016-11-24T01:40:02.919Z,926.74
2016-11-24T01:40:17.330Z,926.74
2016-11-24T01:40:31.718Z,926.75
2016-11-24T01:40:46.144Z,926.76
2016-11-24T01:41:00.497Z,926.76
2016-11-24T01:41:14.854Z,926.77
2016-11-24T01:41:29.268Z,926.77
2016-11-24T01:41:43.651Z,926.77
2016-11-24T01:41:57.987Z,926.78
2016-11-24T01:42:12.371Z,926.73
2016-11-24T01:42:26.781Z,926.76
2016-11-24T01:42:41.214Z,926.77
2016-11-24T01:42:55.643Z,926.78
2016-11-24T01:43:10.069Z,926.79
2016-11-24T01:43:24.441Z,926.78
2016-11-24T01:43:38.862Z,926.8
2016-11-24T01:43:53.256Z,926.77
2016-11-24T01:44:07.661Z,926.78
2016-11-24T01:44:22.075Z,926.8
2016-11-24T01:44:36.437Z,926.79
2016-11-24T01:44:50.833Z,926.84
2016-11-24T01:45:05.171Z,926.81
2016-11-24T01:45:19.535Z,926.78
2016-11-24T01:45:33.862Z,926.8
2016-11-24T01:46:19.441Z,926.82
2016-11-24T01:46:33.809Z,926.8
2016-11-24T01:46:48.263Z,926.81
2016-11-24T01:47:33.517Z,926.81
2016-11-24T01:47:47.924Z,926.8
2016-11-24T01:48:02.283Z,926.81
2016-11-24T01:48:16.721Z,926.77
2016-11-24T01:48:31.060Z,926.8
2016-11-24T01:48:45.479Z,926.84
2016-11-24T01:48:59.851Z,926.8
2016-11-24T01:49:14.311Z,926.8
2016-11-24T01:49:28.626Z,926.82
2016-11-24T01:49:42.977Z,926.82
2016-11-24T01:49:57.340Z,926.82
2016-11-24T01:50:11.753Z,926.84
2016-11-24T01:50:26.199Z,926.81
2016-11-24T01:50:40.616Z,926.8
2016-11-24T01:50:54.951Z,926.82
2016-11-24T01:51:40.233Z,926.81
2016-11-24T01:51:54.597Z,926.82
2016-11-24T01:52:08.973Z,926.81
2016-11-24T01:52:23.397Z,926.82
2016-11-24T01:52:37.836Z,926.81
2016-11-24T01:52:52.289Z,926.78
2016-11-24T01:53:06.671Z,926.78
2016-11-24T01:53:21.110Z,926.8
2016-11-24T01:53:35.549Z,926.8
2016-11-24T01:53:49.951Z,926.8
2016-11-24T01:54:04.389Z,926.83
2016-11-24T01:54:18.836Z,926.82
2016-11-24T01:54:33.200Z,926.81
2016-11-24T01:54:47.646Z,926.79
2016-11-24T01:55:02.010Z,926.82
2016-11-24T01:55:16.440Z,926.81
2016-11-24T01:55:30.846Z,926.82
2016-11-24T01:55:45.227Z,926.82
2016-11-24T01:55:59.616Z,926.79
2016-11-24T01:56:13.976Z,926.81
2016-11-24T01:56:28.418Z,926.78
2016-11-24T01:57:13.725Z,926.78
2016-11-24T01:57:28.192Z,926.82
2016-11-24T01:57:42.598Z,926.78
2016-11-24T01:57:57.014Z,926.77
2016-11-24T01:58:11.356Z,926.79
2016-11-24T01:58:25.752Z,926.79
2016-11-24T01:58:40.141Z,926.78
2016-11-24T01:58:54.505Z,926.77
2016-11-24T01:59:08.883Z,926.8
2016-11-24T01:59:23.261Z,926.77
2016-11-24T01:59:37.541Z,926.79
2016-11-24T01:59:51.948Z,926.8
2016-11-24T02:00:06.402Z,926.79
2016-11-24T02:00:20.776Z,926.83
2016-11-24T02:00:35.196Z,926.78
2016-11-24T02:00:49.564Z,926.8
2016-11-24T02:01:03.904Z,926.82
2016-11-24T02:01:18.285Z,926.78
2016-11-24T02:01:32.672Z,926.81
2016-11-24T02:01:47.058Z,926.8
2016-11-24T02:02:01.451Z,926.78
2016-11-24T02:02:16.111Z,926.76
2016-11-24T02:02:30.511Z,926.82
2016-11-24T02:02:44.839Z,926.78
2016-11-24T02:02:59.281Z,926.78
2016-11-24T02:03:13.760Z,926.78
2016-11-24T02:03:28.103Z,926.8
2016-11-24T02:03:42.515Z,926.8
2016-11-24T02:03:56.890Z,926.77
2016-11-24T02:04:11.309Z,926.76
2016-11-24T02:04:25.677Z,926.79
2016-11-24T02:04:40.076Z,926.77
2016-11-24T02:04:54.420Z,926.78
2016-11-24T02:05:08.804Z,926.77
2016-11-24T02:05:23.168Z,926.77
2016-11-24T02:05:37.606Z,926.78
2016-11-24T02:05:51.955Z,926.81
2016-11-24T02:06:06.327Z,926.77
2016-11-24T02:06:20.723Z,926.78
2016-11-24T02:06:35.131Z,926.77
2016-11-24T02:06:49.527Z,926.78
2016-11-24T02:07:03.877Z,926.79
2016-11-24T02:07:18.254Z,926.81
2016-11-24T02:07:32.648Z,926.8
2016-11-24T02:07:47.053Z,926.78
2016-11-24T02:08:01.479Z,926.8
2016-11-24T02:08:16.008Z,926.78
2016-11-24T02:08:30.476Z,926.8
2016-11-24T02:08:44.887Z,926.78
2016-11-24T02:08:59.296Z,926.77
2016-11-24T02:09:13.677Z,926.79
2016-11-24T02:09:28.015Z,926.79
2016-11-24T02:09:42.381Z,926.79
2016-11-24T02:09:56.778Z,926.76
2016-11-24T02:10:11.178Z,926.74
2016-11-24T02:10:25.601Z,926.76
2016-11-24T02:10:39.978Z,926.76
2016-11-24T02:10:54.579Z,926.7
2016-11-24T02:11:09.004Z,926.72
2016-11-24T02:11:23.399Z,926.75
2016-11-24T02:11:37.786Z,926.72
2016-11-24T02:11:52.222Z,926.76
2016-11-24T02:12:06.623Z,926.75
2016-11-24T02:12:21.075Z,926.78
2016-11-24T02:12:35.440Z,926.76
2016-11-24T02:12:49.815Z,926.77
2016-11-24T02:13:04.155Z,926.81
2016-11-24T02:13:18.616Z,926.82
2016-11-24T02:13:33.041Z,926.82
2016-11-24T02:13:47.379Z,926.8
2016-11-24T02:14:01.768Z,926.78
2016-11-24T02:14:16.176Z,926.81
2016-11-24T02:14:30.619Z,926.8
2016-11-24T02:14:45.055Z,926.82
2016-11-24T02:14:59.444Z,926.86
2016-11-24T02:15:13.869Z,926.85
2016-11-24T02:15:28.242Z,926.89
2016-11-24T02:15:42.639Z,926.87
2016-11-24T02:15:57.071Z,926.88
2016-11-24T02:16:11.483Z,926.87
2016-11-24T02:16:25.842Z,926.91
2016-11-24T02:16:40.271Z,926.87
2016-11-24T02:16:54.724Z,926.91
2016-11-24T02:17:09.161Z,926.88
2016-11-24T02:17:23.968Z,926.88
2016-11-24T02:17:38.374Z,926.88
2016-11-24T02:17:52.775Z,926.91
2016-11-24T02:18:07.193Z,926.89
2016-11-24T02:18:21.566Z,926.89
2016-11-24T02:18:35.955Z,926.91
2016-11-24T02:18:50.348Z,926.89
2016-11-24T02:19:04.708Z,926.89
2016-11-24T02:19:19.056Z,926.92
2016-11-24T02:19:33.509Z,926.91
2016-11-24T02:19:47.953Z,926.89
2016-11-24T02:20:02.330Z,926.89
2016-11-24T02:20:16.698Z,926.88
2016-11-24T02:20:31.071Z,926.88
2016-11-24T02:20:45.458Z,926.88
2016-11-24T02:20:59.879Z,926.92
2016-11-24T02:21:14.345Z,926.92
2016-11-24T02:21:28.733Z,926.91
2016-11-24T02:21:43.141Z,926.92
2016-11-24T02:21:57.567Z,926.89
2016-11-24T02:22:11.947Z,926.91
2016-11-24T02:22:26.314Z,926.93
2016-11-24T02:22:40.656Z,926.94
2016-11-24T02:22:55.050Z,926.94
2016-11-24T02:23:09.380Z,926.9
2016-11-24T02:23:23.683Z,926.92
2016-11-24T02:23:38.056Z,926.9
2016-11-24T02:23:52.485Z,926.89
2016-11-24T02:24:06.907Z,926.91
2016-11-24T02:24:21.235Z,926.94
2016-11-24T02:24:35.606Z,926.93
2016-11-24T02:24:49.984Z,926.95
2016-11-24T02:25:04.388Z,926.94
2016-11-24T02:25:18.796Z,926.95
2016-11-24T02:25:33.205Z,926.93
2016-11-24T02:25:47.557Z,926.95
2016-11-24T02:26:01.942Z,926.94
2016-11-24T02:26:16.389Z,926.95
2016-11-24T02:26:30.797Z,926.92
2016-11-24T02:26:45.188Z,926.94
2016-11-24T02:27:44.992Z,926.96
2016-11-24T02:27:59.376Z,926.94
2016-11-24T02:28:44.706Z,926.93
2016-11-24T02:28:59.116Z,926.93
2016-11-24T02:29:13.487Z,926.92
2016-11-24T02:29:27.853Z,926.93
2016-11-24T02:29:42.261Z,926.97
2016-11-24T02:29:56.728Z,926.94
2016-11-24T02:30:11.142Z,926.93
2016-11-24T02:30:25.536Z,926.95
2016-11-24T02:30:39.945Z,926.95
2016-11-24T02:30:54.369Z,926.92
2016-11-24T02:31:08.757Z,926.94
2016-11-24T02:31:23.186Z,926.95
2016-11-24T02:31:37.585Z,926.92
2016-11-24T02:31:51.934Z,926.88
2016-11-24T02:32:06.451Z,926.92
2016-11-24T02:33:37.464Z,926.9
2016-11-24T02:33:51.870Z,926.9
2016-11-24T02:34:06.330Z,926.91
2016-11-24T02:34:20.715Z,926.9
2016-11-24T02:34:35.111Z,926.9
2016-11-24T02:34:49.471Z,926.9
2016-11-24T02:35:03.885Z,926.92
2016-11-24T02:35:18.254Z,926.9
2016-11-24T02:35:32.621Z,926.88
2016-11-24T02:35:47.072Z,926.9
2016-11-24T02:36:01.508Z,926.9
2016-11-24T02:36:15.925Z,926.91
2016-11-24T02:37:01.256Z,926.89
2016-11-24T02:37:15.657Z,926.89
2016-11-24T02:37:30.065Z,926.9
2016-11-24T02:37:44.495Z,926.92
2016-11-24T02:37:58.890Z,926.89
2016-11-24T02:38:13.225Z,926.91
2016-11-24T02:38:58.622Z,926.88
2016-11-24T02:39:13.037Z,926.91
2016-11-24T02:39:27.372Z,926.88
2016-11-24T02:39:41.698Z,926.9
2016-11-24T02:39:56.035Z,926.88
2016-11-24T02:40:10.435Z,926.88
2016-11-24T02:40:24.806Z,926.89
2016-11-24T02:40:39.212Z,926.9
2016-11-24T02:40:53.580Z,926.89
2016-11-24T02:41:38.905Z,926.92
2016-11-24T02:41:53.382Z,926.93
2016-11-24T02:42:07.745Z,926.92
2016-11-24T02:42:22.139Z,926.91
2016-11-24T02:42:36.586Z,926.89
2016-11-24T02:42:51.034Z,926.89
2016-11-24T02:43:05.396Z,926.89
2016-11-24T02:43:19.710Z,926.89
2016-11-24T02:43:34.118Z,926.91
2016-11-24T02:43:48.493Z,926.89
2016-11-24T02:44:02.904Z,926.91
2016-11-24T02:44:17.376Z,926.89
2016-11-24T02:44:31.756Z,926.88
2016-11-24T02:44:46.112Z,926.91
2016-11-24T02:45:00.515Z,926.89
2016-11-24T02:45:14.872Z,926.91
2016-11-24T02:45:29.285Z,926.91
2016-11-24T02:45:43.662Z,926.9
2016-11-24T02:45:58.106Z,926.9
2016-11-24T02:46:12.511Z,926.89
2016-11-24T02:46:27.001Z,926.85
2016-11-24T02:46:41.354Z,926.87
2016-11-24T02:47:41.107Z,926.84
2016-11-24T02:47:55.459Z,926.88
2016-11-24T02:48:10.214Z,926.85
2016-11-24T02:48:24.598Z,926.84
2016-11-24T02:48:38.888Z,926.83
2016-11-24T02:48:53.313Z,926.85
2016-11-24T02:49:07.699Z,926.81
2016-11-24T02:50:52.705Z,926.82
2016-11-24T02:51:07.165Z,926.81
2016-11-24T02:51:21.547Z,926.79
2016-11-24T02:51:35.928Z,926.83
2016-11-24T02:51:50.327Z,926.82
2016-11-24T02:52:04.659Z,926.8
2016-11-24T02:52:19.069Z,926.84
2016-11-24T02:52:33.489Z,926.78
2016-11-24T02:52:47.886Z,926.83
2016-11-24T02:53:02.288Z,926.79
2016-11-24T02:53:16.729Z,926.8
2016-11-24T02:53:31.093Z,926.78
2016-11-24T02:53:45.433Z,926.79
2016-11-24T02:53:59.752Z,926.8
2016-11-24T02:54:14.190Z,926.79
2016-11-24T02:54:28.620Z,926.79
2016-11-24T02:54:43.025Z,926.79
2016-11-24T02:54:57.400Z,926.83
2016-11-24T02:55:42.669Z,926.82
2016-11-24T02:56:27.966Z,926.8
2016-11-24T02:56:42.375Z,926.8
2016-11-24T02:56:56.701Z,926.81
2016-11-24T02:57:11.132Z,926.79
2016-11-24T02:58:10.863Z,926.81
2016-11-24T02:58:25.300Z,926.79
2016-11-24T02:58:39.624Z,926.8
2016-11-24T02:59:24.995Z,926.85
2016-11-24T03:00:05.087Z,926.82
2016-11-24T03:00:19.509Z,926.83
2016-11-24T03:00:33.840Z,926.81
2016-11-24T03:00:48.292Z,926.85
2016-11-24T03:01:28.286Z,926.84
2016-11-24T03:01:42.681Z,926.82
2016-11-24T03:01:57.132Z,926.85
2016-11-24T03:02:42.486Z,926.85
2016-11-24T03:02:56.924Z,926.8
2016-11-24T03:03:11.554Z,926.84
2016-11-24T03:03:25.990Z,926.83
2016-11-24T03:03:40.340Z,926.8
2016-11-24T03:03:54.775Z,926.82
2016-11-24T03:04:09.178Z,926.82
2016-11-24T03:04:23.617Z,926.79
2016-11-24T03:04:38.028Z,926.79
2016-11-24T03:04:52.486Z,926.83
2016-11-24T03:05:06.880Z,926.82
2016-11-24T03:05:21.277Z,926.77
2016-11-24T03:05:35.691Z,926.77
2016-11-24T03:05:50.044Z,926.78
2016-11-24T03:06:04.413Z,926.8
2016-11-24T03:06:18.833Z,926.8
2016-11-24T03:06:33.257Z,926.8
2016-11-24T03:06:47.671Z,926.81
2016-11-24T03:07:02.119Z,926.8
2016-11-24T03:07:16.595Z,926.79
2016-11-24T03:07:30.997Z,926.8
2016-11-24T03:07:45.387Z,926.77
2016-11-24T03:07:59.739Z,926.81
2016-11-24T03:08:14.112Z,926.79
2016-11-24T03:08:28.542Z,926.79
2016-11-24T03:08:42.951Z,926.77
2016-11-24T03:08:57.397Z,926.8
2016-11-24T03:09:11.787Z,926.73
2016-11-24T03:09:26.178Z,926.78
2016-11-24T03:09:40.596Z,926.72
2016-11-24T03:09:54.955Z,926.75
2016-11-24T03:10:09.350Z,926.73
2016-11-24T03:10:23.807Z,926.75
2016-11-24T03:10:38.247Z,926.74
2016-11-24T03:10:52.647Z,926.74
2016-11-24T03:11:07.045Z,926.74
2016-11-24T03:11:21.507Z,926.75
2016-11-24T03:11:36.057Z,926.74
2016-11-24T03:11:50.466Z,926.73
2016-11-24T03:12:04.854Z,926.74
2016-11-24T03:12:19.288Z,926.72
2016-11-24T03:12:33.795Z,926.72
2016-11-24T03:12:48.198Z,926.69
2016-11-24T03:13:02.660Z,926.72
2016-11-24T03:13:17.044Z,926.71
2016-11-24T03:13:31.486Z,926.72
2016-11-24T03:13:45.903Z,926.71
2016-11-24T03:14:00.366Z,926.72
2016-11-24T03:14:14.766Z,926.72
2016-11-24T03:14:29.131Z,926.73
2016-11-24T03:14:43.551Z,926.7
2016-11-24T03:14:57.908Z,926.71
2016-11-24T03:15:12.335Z,926.69
2016-11-24T03:15:26.795Z,926.71
2016-11-24T03:15:41.207Z,926.71
2016-11-24T03:15:55.702Z,926.67
2016-11-24T03:16:10.027Z,926.72
2016-11-24T03:16:24.455Z,926.7
2016-11-24T03:16:38.851Z,926.72
2016-11-24T03:16:53.309Z,926.75
2016-11-24T03:17:07.661Z,926.71
2016-11-24T03:17:22.055Z,926.71
2016-11-24T03:17:37.115Z,926.74
2016-11-24T03:17:51.585Z,926.69
2016-11-24T03:18:05.999Z,926.73
2016-11-24T03:18:20.801Z,926.72
2016-11-24T03:18:35.249Z,926.72
2016-11-24T03:18:49.724Z,926.71
2016-11-24T03:19:04.183Z,926.71
2016-11-24T03:19:18.560Z,926.73
2016-11-24T03:19:32.965Z,926.72
2016-11-24T03:19:47.340Z,926.72
2016-11-24T03:20:01.780Z,926.74
2016-11-24T03:20:16.208Z,926.73
2016-11-24T03:20:30.613Z,926.71
2016-11-24T03:20:45.033Z,926.76
2016-11-24T03:20:59.428Z,926.72
2016-11-24T03:21:13.780Z,926.73
2016-11-24T03:21:28.120Z,926.73
2016-11-24T03:21:42.545Z,926.75
2016-11-24T03:21:56.973Z,926.76
2016-11-24T03:22:11.398Z,926.73
2016-11-24T03:22:25.800Z,926.74
2016-11-24T03:22:40.247Z,926.76
2016-11-24T03:22:54.620Z,926.74
2016-11-24T03:23:09.135Z,926.72
2016-11-24T03:23:23.579Z,926.72
2016-11-24T03:23:37.959Z,926.73
2016-11-24T03:23:52.443Z,926.75
2016-11-24T03:24:06.855Z,926.74
2016-11-24T03:24:21.248Z,926.75
2016-11-24T03:24:35.636Z,926.71
2016-11-24T03:24:50.040Z,926.74